sensor_id;sensor_type;location;lat;lon;timestamp;pressure;altitude;pressure_sealevel;temperature;humidity
56668;BME280;42542;48.360;10.958;2022-08-19T00:02:12;95602.00;;;18.80;99.55
56668;BME280;42542;48.360;10.958;2022-08-19T00:05:14;95619.88;;;18.81;99.90
56668;BME280;42542;48.360;10.958;2022-08-19T00:08:16;95613.28;;;18.77;100.00
56668;BME280;42542;48.360;10.958;2022-08-19T00:11:18;95627.25;;;18.73;100.00
56668;BME280;42542;48.360;10.958;2022-08-19T00:14:27;95619.59;;;18.70;100.00
56668;BME280;42542;48.360;10.958;2022-08-19T00:17:29;95623.59;;;18.68;100.00
56668;BME280;42542;48.360;10.958;2022-08-19T00:20:31;95628.88;;;18.63;100.00
56668;BME280;42542;48.360;10.958;2022-08-19T00:23:33;95627.94;;;18.69;100.00
56668;BME280;42542;48.360;10.958;2022-08-19T00:26:38;95620.88;;;18.68;100.00
56668;BME280;42542;48.360;10.958;2022-08-19T00:29:40;95636.06;;;18.69;100.00
56668;BME280;42542;48.360;10.958;2022-08-19T00:32:42;95632.94;;;18.72;100.00
56668;BME280;42542;48.360;10.958;2022-08-19T00:35:43;95628.34;;;18.73;100.00
56668;BME280;42542;48.360;10.958;2022-08-19T00:38:45;95637.03;;;18.75;100.00
56668;BME280;42542;48.360;10.958;2022-08-19T00:41:49;95628.47;;;18.78;100.00
56668;BME280;42542;48.360;10.958;2022-08-19T00:44:51;95621.41;;;18.77;100.00
56668;BME280;42542;48.360;10.958;2022-08-19T00:47:52;95618.09;;;18.75;100.00
56668;BME280;42542;48.360;10.958;2022-08-19T00:50:54;95615.16;;;18.76;100.00
56668;BME280;42542;48.360;10.958;2022-08-19T00:53:58;95621.41;;;18.77;100.00
56668;BME280;42542;48.360;10.958;2022-08-19T00:57:01;95610.56;;;18.77;100.00
56668;BME280;42542;48.360;10.958;2022-08-19T01:00:11;95616.22;;;18.75;100.00
56668;BME280;42542;48.360;10.958;2022-08-19T01:03:18;95621.00;;;18.73;100.00
56668;BME280;42542;48.360;10.958;2022-08-19T01:06:20;95616.69;;;18.72;100.00
56668;BME280;42542;48.360;10.958;2022-08-19T01:09:22;95615.03;;;18.71;100.00
56668;BME280;42542;48.360;10.958;2022-08-19T01:12:24;95623.97;;;18.71;100.00
56668;BME280;42542;48.360;10.958;2022-08-19T01:15:29;95627.13;;;18.68;100.00
56668;BME280;42542;48.360;10.958;2022-08-19T01:18:36;95623.59;;;18.68;100.00
56668;BME280;42542;48.360;10.958;2022-08-19T01:21:57;95615.31;;;18.63;100.00
56668;BME280;42542;48.360;10.958;2022-08-19T01:25:16;95625.94;;;18.64;100.00
56668;BME280;42542;48.360;10.958;2022-08-19T01:28:27;95627.19;;;18.62;100.00
56668;BME280;42542;48.360;10.958;2022-08-19T01:31:40;95625.09;;;18.64;100.00
56668;BME280;42542;48.360;10.958;2022-08-19T01:34:42;95617.22;;;18.62;100.00
56668;BME280;42542;48.360;10.958;2022-08-19T01:37:52;95622.41;;;18.64;100.00
56668;BME280;42542;48.360;10.958;2022-08-19T01:40:54;95625.31;;;18.62;100.00
56668;BME280;42542;48.360;10.958;2022-08-19T01:43:56;95631.78;;;18.61;100.00
56668;BME280;42542;48.360;10.958;2022-08-19T01:47:18;95640.97;;;18.60;100.00
56668;BME280;42542;48.360;10.958;2022-08-19T01:50:20;95637.41;;;18.60;100.00
56668;BME280;42542;48.360;10.958;2022-08-19T01:53:22;95628.94;;;18.56;100.00
56668;BME280;42542;48.360;10.958;2022-08-19T01:56:30;95614.56;;;18.56;100.00
56668;BME280;42542;48.360;10.958;2022-08-19T01:59:33;95633.53;;;18.56;100.00
56668;BME280;42542;48.360;10.958;2022-08-19T02:02:37;95637.88;;;18.57;100.00
56668;BME280;42542;48.360;10.958;2022-08-19T02:05:40;95655.19;;;18.56;100.00
56668;BME280;42542;48.360;10.958;2022-08-19T02:08:42;95651.00;;;18.53;100.00
56668;BME280;42542;48.360;10.958;2022-08-19T02:11:50;95663.09;;;18.57;100.00
56668;BME280;42542;48.360;10.958;2022-08-19T02:14:52;95646.19;;;18.55;100.00
56668;BME280;42542;48.360;10.958;2022-08-19T02:17:56;95626.84;;;18.58;100.00
56668;BME280;42542;48.360;10.958;2022-08-19T02:20:57;95625.41;;;18.56;100.00
56668;BME280;42542;48.360;10.958;2022-08-19T02:23:59;95637.25;;;18.55;100.00
56668;BME280;42542;48.360;10.958;2022-08-19T02:27:01;95628.94;;;18.56;100.00
56668;BME280;42542;48.360;10.958;2022-08-19T02:30:05;95634.34;;;18.56;100.00
56668;BME280;42542;48.360;10.958;2022-08-19T02:33:07;95628.94;;;18.56;100.00
56668;BME280;42542;48.360;10.958;2022-08-19T02:36:11;95629.78;;;18.57;100.00
56668;BME280;42542;48.360;10.958;2022-08-19T02:39:15;95636.41;;;18.54;100.00
56668;BME280;42542;48.360;10.958;2022-08-19T02:42:17;95620.41;;;18.53;100.00
56668;BME280;42542;48.360;10.958;2022-08-19T02:45:19;95629.00;;;18.50;100.00
56668;BME280;42542;48.360;10.958;2022-08-19T02:48:23;95643.56;;;18.49;100.00
56668;BME280;42542;48.360;10.958;2022-08-19T02:51:28;95645.44;;;18.48;100.00
56668;BME280;42542;48.360;10.958;2022-08-19T02:54:30;95627.19;;;18.44;100.00
56668;BME280;42542;48.360;10.958;2022-08-19T02:57:32;95629.91;;;18.44;100.00
56668;BME280;42542;48.360;10.958;2022-08-19T03:00:33;95636.34;;;18.43;100.00
56668;BME280;42542;48.360;10.958;2022-08-19T03:03:42;95636.09;;;18.44;100.00
56668;BME280;42542;48.360;10.958;2022-08-19T03:06:45;95642.34;;;18.45;100.00
56668;BME280;42542;48.360;10.958;2022-08-19T03:09:47;95629.06;;;18.43;100.00
56668;BME280;42542;48.360;10.958;2022-08-19T03:12:49;95623.41;;;18.45;100.00
56668;BME280;42542;48.360;10.958;2022-08-19T03:15:50;95609.28;;;18.43;100.00
56668;BME280;42542;48.360;10.958;2022-08-19T03:18:53;95613.88;;;18.42;100.00
56668;BME280;42542;48.360;10.958;2022-08-19T03:21:55;95596.19;;;18.40;100.00
56668;BME280;42542;48.360;10.958;2022-08-19T03:24:57;95600.78;;;18.39;100.00
56668;BME280;42542;48.360;10.958;2022-08-19T03:27:58;95612.44;;;18.40;100.00
56668;BME280;42542;48.360;10.958;2022-08-19T03:31:11;95614.69;;;18.43;100.00
56668;BME280;42542;48.360;10.958;2022-08-19T03:34:34;95614.53;;;18.38;100.00
56668;BME280;42542;48.360;10.958;2022-08-19T03:37:37;95622.91;;;18.36;100.00
56668;BME280;42542;48.360;10.958;2022-08-19T03:40:41;95637.00;;;18.38;100.00
56668;BME280;42542;48.360;10.958;2022-08-19T03:43:44;95629.72;;;18.39;100.00
56668;BME280;42542;48.360;10.958;2022-08-19T03:46:55;95629.50;;;18.40;100.00
56668;BME280;42542;48.360;10.958;2022-08-19T03:49:57;95636.44;;;18.36;100.00
56668;BME280;42542;48.360;10.958;2022-08-19T03:52:59;95639.13;;;18.36;100.00
56668;BME280;42542;48.360;10.958;2022-08-19T03:56:02;95636.66;;;18.34;100.00
56668;BME280;42542;48.360;10.958;2022-08-19T03:59:06;95639.13;;;18.36;100.00
56668;BME280;42542;48.360;10.958;2022-08-19T04:02:11;95628.53;;;18.34;100.00
56668;BME280;42542;48.360;10.958;2022-08-19T04:05:12;95626.03;;;18.33;100.00
56668;BME280;42542;48.360;10.958;2022-08-19T04:08:15;95621.66;;;18.32;100.00
56668;BME280;42542;48.360;10.958;2022-08-19T04:11:23;95619.78;;;18.32;100.00
56668;BME280;42542;48.360;10.958;2022-08-19T04:14:44;95612.59;;;18.26;100.00
56668;BME280;42542;48.360;10.958;2022-08-19T04:17:46;95604.47;;;18.26;100.00
56668;BME280;42542;48.360;10.958;2022-08-19T04:20:48;95594.34;;;18.22;100.00
56668;BME280;42542;48.360;10.958;2022-08-19T04:23:51;95589.34;;;18.19;100.00
56668;BME280;42542;48.360;10.958;2022-08-19T04:26:56;95601.00;;;18.19;100.00
56668;BME280;42542;48.360;10.958;2022-08-19T04:29:57;95604.41;;;18.15;100.00
56668;BME280;42542;48.360;10.958;2022-08-19T04:32:59;95611.22;;;18.17;100.00
56668;BME280;42542;48.360;10.958;2022-08-19T04:36:01;95629.50;;;18.22;100.00
56668;BME280;42542;48.360;10.958;2022-08-19T04:39:06;95624.09;;;18.22;100.00
56668;BME280;42542;48.360;10.958;2022-08-19T04:42:08;95632.41;;;18.20;100.00
56668;BME280;42542;48.360;10.958;2022-08-19T04:45:31;95651.72;;;18.24;100.00
56668;BME280;42542;48.360;10.958;2022-08-19T04:48:46;95646.31;;;18.24;100.00
56668;BME280;42542;48.360;10.958;2022-08-19T04:51:51;95657.13;;;18.24;100.00
56668;BME280;42542;48.360;10.958;2022-08-19T04:54:55;95659.25;;;18.22;100.00
56668;BME280;42542;48.360;10.958;2022-08-19T04:57:57;95670.66;;;18.24;100.00
56668;BME280;42542;48.360;10.958;2022-08-19T05:01:00;95664.88;;;18.20;100.00
56668;BME280;42542;48.360;10.958;2022-08-19T05:04:04;95676.47;;;18.27;100.00
56668;BME280;42542;48.360;10.958;2022-08-19T05:07:07;95684.94;;;18.31;100.00
56668;BME280;42542;48.360;10.958;2022-08-19T05:10:09;95673.09;;;18.32;100.00
56668;BME280;42542;48.360;10.958;2022-08-19T05:13:11;95663.31;;;18.31;100.00
56668;BME280;42542;48.360;10.958;2022-08-19T05:16:14;95665.78;;;18.32;100.00
56668;BME280;42542;48.360;10.958;2022-08-19T05:19:16;95673.69;;;18.34;100.00
56668;BME280;42542;48.360;10.958;2022-08-19T05:22:36;95676.19;;;18.36;100.00
56668;BME280;42542;48.360;10.958;2022-08-19T05:25:39;95673.84;;;18.39;100.00
56668;BME280;42542;48.360;10.958;2022-08-19T05:28:42;95675.28;;;18.42;100.00
56668;BME280;42542;48.360;10.958;2022-08-19T05:31:44;95680.47;;;18.43;100.00
56668;BME280;42542;48.360;10.958;2022-08-19T05:34:46;95683.56;;;18.47;100.00
56668;BME280;42542;48.360;10.958;2022-08-19T05:37:50;95677.31;;;18.46;100.00
56668;BME280;42542;48.360;10.958;2022-08-19T05:41:07;95679.59;;;18.49;100.00
56668;BME280;42542;48.360;10.958;2022-08-19T05:44:09;95677.50;;;18.51;100.00
56668;BME280;42542;48.360;10.958;2022-08-19T05:47:13;95677.25;;;18.53;100.00
56668;BME280;42542;48.360;10.958;2022-08-19T05:50:16;95672.25;;;18.56;100.00
56668;BME280;42542;48.360;10.958;2022-08-19T05:53:18;95662.63;;;18.60;100.00
56668;BME280;42542;48.360;10.958;2022-08-19T05:56:20;95668.03;;;18.60;100.00
56668;BME280;42542;48.360;10.958;2022-08-19T05:59:22;95675.09;;;18.61;100.00
56668;BME280;42542;48.360;10.958;2022-08-19T06:02:28;95672.19;;;18.63;100.00
56668;BME280;42542;48.360;10.958;2022-08-19T06:05:32;95665.94;;;18.62;100.00
56668;BME280;42542;48.360;10.958;2022-08-19T06:08:46;95664.66;;;18.65;100.00
56668;BME280;42542;48.360;10.958;2022-08-19T06:11:55;95660.31;;;18.64;100.00
56668;BME280;42542;48.360;10.958;2022-08-19T06:15:07;95661.78;;;18.60;100.00
56668;BME280;42542;48.360;10.958;2022-08-19T06:18:09;95665.16;;;18.55;100.00
56668;BME280;42542;48.360;10.958;2022-08-19T06:21:11;95666.41;;;18.53;100.00
56668;BME280;42542;48.360;10.958;2022-08-19T06:24:15;95671.59;;;18.54;100.00
56668;BME280;42542;48.360;10.958;2022-08-19T06:27:17;95674.13;;;18.56;100.00
56668;BME280;42542;48.360;10.958;2022-08-19T06:30:19;95683.25;;;18.55;100.00
56668;BME280;42542;48.360;10.958;2022-08-19T06:33:21;95676.41;;;18.52;100.00
56668;BME280;42542;48.360;10.958;2022-08-19T06:36:25;95689.31;;;18.57;100.00
56668;BME280;42542;48.360;10.958;2022-08-19T06:39:38;95692.84;;;18.57;100.00
56668;BME280;42542;48.360;10.958;2022-08-19T06:42:40;95695.31;;;18.59;100.00
56668;BME280;42542;48.360;10.958;2022-08-19T06:45:55;95698.84;;;18.59;99.70
56668;BME280;42542;48.360;10.958;2022-08-19T06:48:57;95695.56;;;18.57;100.00
56668;BME280;42542;48.360;10.958;2022-08-19T06:52:00;95697.81;;;18.60;100.00
56668;BME280;42542;48.360;10.958;2022-08-19T06:55:05;95708.41;;;18.62;99.98
56668;BME280;42542;48.360;10.958;2022-08-19T06:58:07;95701.13;;;18.62;100.00
56668;BME280;42542;48.360;10.958;2022-08-19T07:01:09;95695.72;;;18.62;100.00
56668;BME280;42542;48.360;10.958;2022-08-19T07:04:11;95695.72;;;18.62;100.00
56668;BME280;42542;48.360;10.958;2022-08-19T07:07:14;95699.47;;;18.61;99.89
56668;BME280;42542;48.360;10.958;2022-08-19T07:10:21;95684.75;;;18.57;99.95
56668;BME280;42542;48.360;10.958;2022-08-19T07:13:26;95691.19;;;18.56;100.00
56668;BME280;42542;48.360;10.958;2022-08-19T07:16:28;95689.91;;;18.59;100.00
56668;BME280;42542;48.360;10.958;2022-08-19T07:19:30;95680.72;;;18.60;100.00
56668;BME280;42542;48.360;10.958;2022-08-19T07:22:37;95688.50;;;18.56;100.00
56668;BME280;42542;48.360;10.958;2022-08-19T07:25:39;95686.63;;;18.57;100.00
56668;BME280;42542;48.360;10.958;2022-08-19T07:28:42;95669.53;;;18.56;100.00
56668;BME280;42542;48.360;10.958;2022-08-19T07:31:52;95673.44;;;18.60;100.00
56668;BME280;42542;48.360;10.958;2022-08-19T07:34:57;95671.34;;;18.62;100.00
56668;BME280;42542;48.360;10.958;2022-08-19T07:37:59;95665.50;;;18.65;100.00
56668;BME280;42542;48.360;10.958;2022-08-19T07:41:04;95669.25;;;18.64;100.00
56668;BME280;42542;48.360;10.958;2022-08-19T07:44:08;95679.38;;;18.69;100.00
56668;BME280;42542;48.360;10.958;2022-08-19T07:47:10;95684.19;;;18.67;100.00
56668;BME280;42542;48.360;10.958;2022-08-19T07:50:31;95674.28;;;18.61;100.00
56668;BME280;42542;48.360;10.958;2022-08-19T07:53:36;95680.50;;;18.61;100.00
56668;BME280;42542;48.360;10.958;2022-08-19T07:56:40;95672.06;;;18.51;100.00
56668;BME280;42542;48.360;10.958;2022-08-19T07:59:42;95690.56;;;18.54;100.00
56668;BME280;42542;48.360;10.958;2022-08-19T08:02:44;95686.03;;;18.48;100.00
56668;BME280;42542;48.360;10.958;2022-08-19T08:05:46;95694.59;;;18.45;100.00
56668;BME280;42542;48.360;10.958;2022-08-19T08:09:06;95688.19;;;18.40;100.00
56668;BME280;42542;48.360;10.958;2022-08-19T08:12:26;95689.72;;;18.36;100.00
56668;BME280;42542;48.360;10.958;2022-08-19T08:15:36;95682.44;;;18.36;100.00
56668;BME280;42542;48.360;10.958;2022-08-19T08:18:43;95677.00;;;18.36;100.00
56668;BME280;42542;48.360;10.958;2022-08-19T08:21:55;95683.25;;;18.37;100.00
56668;BME280;42542;48.360;10.958;2022-08-19T08:25:02;95684.31;;;18.36;100.00
56668;BME280;42542;48.360;10.958;2022-08-19T08:28:07;95675.41;;;18.28;100.00
56668;BME280;42542;48.360;10.958;2022-08-19T08:31:18;95675.56;;;18.33;100.00
56668;BME280;42542;48.360;10.958;2022-08-19T08:34:20;95672.03;;;18.33;100.00
56668;BME280;42542;48.360;10.958;2022-08-19T08:37:25;95690.53;;;18.36;100.00
56668;BME280;42542;48.360;10.958;2022-08-19T08:43:40;95687.16;;;18.41;100.00
56668;BME280;42542;48.360;10.958;2022-08-19T08:46:59;95689.44;;;18.44;100.00
56668;BME280;42542;48.360;10.958;2022-08-19T08:50:25;95693.19;;;18.43;100.00
56668;BME280;42542;48.360;10.958;2022-08-19T08:53:26;95695.63;;;18.44;100.00
56668;BME280;42542;48.360;10.958;2022-08-19T08:56:31;95678.00;;;18.42;100.00
56668;BME280;42542;48.360;10.958;2022-08-19T08:59:36;95688.59;;;18.43;100.00
56668;BME280;42542;48.360;10.958;2022-08-19T09:02:38;95694.00;;;18.43;100.00
56668;BME280;42542;48.360;10.958;2022-08-19T09:06:04;95700.00;;;18.45;100.00
56668;BME280;42542;48.360;10.958;2022-08-19T09:09:27;95700.00;;;18.45;100.00
56668;BME280;42542;48.360;10.958;2022-08-19T09:16:11;95710.00;;;18.45;100.00
56668;BME280;42542;48.360;10.958;2022-08-19T09:19:15;95713.53;;;18.45;100.00
56668;BME280;42542;48.360;10.958;2022-08-19T09:22:23;95709.84;;;18.40;100.00
56668;BME280;42542;48.360;10.958;2022-08-19T09:25:27;95715.66;;;18.43;100.00
56668;BME280;42542;48.360;10.958;2022-08-19T09:28:30;95702.34;;;18.42;100.00
56668;BME280;42542;48.360;10.958;2022-08-19T09:31:32;95705.50;;;18.39;100.00
56668;BME280;42542;48.360;10.958;2022-08-19T09:34:34;95717.28;;;18.44;100.00
56668;BME280;42542;48.360;10.958;2022-08-19T09:37:38;95714.00;;;18.42;100.00
56668;BME280;42542;48.360;10.958;2022-08-19T09:40:40;95713.78;;;18.44;100.00
56668;BME280;42542;48.360;10.958;2022-08-19T09:43:45;95711.09;;;18.44;100.00
56668;BME280;42542;48.360;10.958;2022-08-19T09:46:48;95717.06;;;18.46;100.00
56668;BME280;42542;48.360;10.958;2022-08-19T09:49:50;95711.66;;;18.46;100.00
56668;BME280;42542;48.360;10.958;2022-08-19T09:52:52;95716.84;;;18.47;100.00
56668;BME280;42542;48.360;10.958;2022-08-19T09:55:58;95713.78;;;18.44;100.00
56668;BME280;42542;48.360;10.958;2022-08-19T09:59:00;95715.41;;;18.45;100.00
56668;BME280;42542;48.360;10.958;2022-08-19T10:02:02;95716.25;;;18.45;100.00
56668;BME280;42542;48.360;10.958;2022-08-19T10:05:11;95712.97;;;18.43;100.00
56668;BME280;42542;48.360;10.958;2022-08-19T10:08:34;95718.94;;;18.45;100.00
56668;BME280;42542;48.360;10.958;2022-08-19T10:11:39;95724.38;;;18.45;100.00
56668;BME280;42542;48.360;10.958;2022-08-19T10:14:51;95717.28;;;18.44;100.00
56668;BME280;42542;48.360;10.958;2022-08-19T10:17:55;95725.19;;;18.46;100.00
56668;BME280;42542;48.360;10.958;2022-08-19T10:21:07;95730.03;;;18.44;100.00
56668;BME280;42542;48.360;10.958;2022-08-19T10:24:12;95725.47;;;18.38;100.00
56668;BME280;42542;48.360;10.958;2022-08-19T10:27:13;95727.34;;;18.37;100.00
56668;BME280;42542;48.360;10.958;2022-08-19T10:30:16;95729.47;;;18.35;100.00
56668;BME280;42542;48.360;10.958;2022-08-19T10:33:18;95728.66;;;18.34;100.00
56668;BME280;42542;48.360;10.958;2022-08-19T10:36:40;95734.28;;;18.33;100.00
56668;BME280;42542;48.360;10.958;2022-08-19T10:40:00;95732.00;;;18.30;100.00
56668;BME280;42542;48.360;10.958;2022-08-19T10:43:03;95733.91;;;18.29;100.00
56668;BME280;42542;48.360;10.958;2022-08-19T10:46:10;95741.41;;;18.27;100.00
56668;BME280;42542;48.360;10.958;2022-08-19T10:49:14;95738.09;;;18.25;100.00
56668;BME280;42542;48.360;10.958;2022-08-19T10:52:17;95742.28;;;18.21;100.00
56668;BME280;42542;48.360;10.958;2022-08-19T10:55:39;95742.72;;;18.18;100.00
56668;BME280;42542;48.360;10.958;2022-08-19T10:58:59;95749.19;;;18.17;100.00
56668;BME280;42542;48.360;10.958;2022-08-19T11:02:03;95755.63;;;18.16;100.00
56668;BME280;42542;48.360;10.958;2022-08-19T11:05:07;95759.00;;;18.12;100.00
56668;BME280;42542;48.360;10.958;2022-08-19T11:08:14;95767.94;;;18.12;100.00
56668;BME280;42542;48.360;10.958;2022-08-19T11:11:23;95767.13;;;18.12;100.00
56668;BME280;42542;48.360;10.958;2022-08-19T11:14:25;95769.63;;;18.13;100.00
56668;BME280;42542;48.360;10.958;2022-08-19T11:17:32;95775.66;;;18.09;100.00
56668;BME280;42542;48.360;10.958;2022-08-19T11:20:36;95770.03;;;18.10;100.00
56668;BME280;42542;48.360;10.958;2022-08-19T11:23:39;95768.84;;;18.06;100.00
56668;BME280;42542;48.360;10.958;2022-08-19T11:26:43;95765.50;;;18.04;100.00
56668;BME280;42542;48.360;10.958;2022-08-19T11:29:47;95759.47;;;18.02;100.00
56668;BME280;42542;48.360;10.958;2022-08-19T11:32:49;95741.22;;;17.98;100.00
56668;BME280;42542;48.360;10.958;2022-08-19T11:35:51;95727.53;;;17.92;100.00
56668;BME280;42542;48.360;10.958;2022-08-19T11:38:53;95726.97;;;17.84;100.00
56668;BME280;42542;48.360;10.958;2022-08-19T11:41:57;95724.91;;;17.79;100.00
56668;BME280;42542;48.360;10.958;2022-08-19T11:44:59;95724.75;;;17.74;100.00
56668;BME280;42542;48.360;10.958;2022-08-19T11:48:02;95717.28;;;17.70;100.00
56668;BME280;42542;48.360;10.958;2022-08-19T11:51:07;95719.59;;;17.66;100.00
56668;BME280;42542;48.360;10.958;2022-08-19T11:54:11;95717.34;;;17.63;100.00
56668;BME280;42542;48.360;10.958;2022-08-19T11:57:14;95716.88;;;17.66;100.00
56668;BME280;42542;48.360;10.958;2022-08-19T12:00:18;95714.19;;;17.66;100.00
56668;BME280;42542;48.360;10.958;2022-08-19T12:03:20;95715.22;;;17.65;100.00
56668;BME280;42542;48.360;10.958;2022-08-19T12:06:25;95725.56;;;17.75;100.00
56668;BME280;42542;48.360;10.958;2022-08-19T12:09:31;95729.94;;;17.76;100.00
56668;BME280;42542;48.360;10.958;2022-08-19T12:12:34;95735.97;;;17.78;100.00
56668;BME280;42542;48.360;10.958;2022-08-19T12:15:40;95723.28;;;17.78;100.00
56668;BME280;42542;48.360;10.958;2022-08-19T12:18:43;95730.31;;;17.79;100.00
56668;BME280;42542;48.360;10.958;2022-08-19T12:21:46;95733.41;;;17.83;100.00
56668;BME280;42542;48.360;10.958;2022-08-19T12:24:49;95735.09;;;17.84;100.00
56668;BME280;42542;48.360;10.958;2022-08-19T12:27:53;95731.34;;;17.85;100.00
56668;BME280;42542;48.360;10.958;2022-08-19T12:30:58;95739.63;;;17.90;100.00
56668;BME280;42542;48.360;10.958;2022-08-19T12:34:00;95746.22;;;17.94;100.00
56668;BME280;42542;48.360;10.958;2022-08-19T12:37:05;95747.69;;;17.97;100.00
56668;BME280;42542;48.360;10.958;2022-08-19T12:40:09;95755.38;;;18.00;100.00
56668;BME280;42542;48.360;10.958;2022-08-19T12:43:13;95760.53;;;18.01;100.00
56668;BME280;42542;48.360;10.958;2022-08-19T12:46:18;95770.72;;;18.06;100.00
56668;BME280;42542;48.360;10.958;2022-08-19T12:49:22;95765.09;;;18.07;100.00
56668;BME280;42542;48.360;10.958;2022-08-19T12:52:47;95773.19;;;18.07;100.00
56668;BME280;42542;48.360;10.958;2022-08-19T12:55:57;95774.03;;;18.08;100.00
56668;BME280;42542;48.360;10.958;2022-08-19T12:59:03;95780.25;;;18.08;100.00
56668;BME280;42542;48.360;10.958;2022-08-19T13:02:06;95779.66;;;18.06;100.00
56668;BME280;42542;48.360;10.958;2022-08-19T13:05:10;95784.84;;;18.08;100.00
56668;BME280;42542;48.360;10.958;2022-08-19T13:08:12;95777.78;;;18.07;100.00
56668;BME280;42542;48.360;10.958;2022-08-19T13:11:17;95780.25;;;18.08;100.00
56668;BME280;42542;48.360;10.958;2022-08-19T13:14:19;95772.53;;;18.12;100.00
56668;BME280;42542;48.360;10.958;2022-08-19T13:17:21;95766.91;;;18.13;100.00
56668;BME280;42542;48.360;10.958;2022-08-19T13:20:24;95762.50;;;18.19;100.00
56668;BME280;42542;48.360;10.958;2022-08-19T13:23:28;95749.38;;;18.22;100.00
56668;BME280;42542;48.360;10.958;2022-08-19T13:26:29;95744.31;;;18.26;100.00
56668;BME280;42542;48.360;10.958;2022-08-19T13:29:31;95751.19;;;18.28;100.00
56668;BME280;42542;48.360;10.958;2022-08-19T13:32:51;95755.09;;;18.32;100.00
56668;BME280;42542;48.360;10.958;2022-08-19T13:36:14;95764.44;;;18.37;100.00
56668;BME280;42542;48.360;10.958;2022-08-19T13:39:15;95756.31;;;18.37;100.00
56668;BME280;42542;48.360;10.958;2022-08-19T13:42:17;95759.03;;;18.37;100.00
56668;BME280;42542;48.360;10.958;2022-08-19T13:45:23;95767.50;;;18.40;100.00
56668;BME280;42542;48.360;10.958;2022-08-19T13:48:27;95766.00;;;18.44;100.00
56668;BME280;42542;48.360;10.958;2022-08-19T13:51:29;95752.47;;;18.44;100.00
56668;BME280;42542;48.360;10.958;2022-08-19T13:54:30;95749.13;;;18.49;100.00
56668;BME280;42542;48.360;10.958;2022-08-19T13:57:32;95748.06;;;18.50;100.00
56668;BME280;42542;48.360;10.958;2022-08-19T14:00:38;95750.78;;;18.50;100.00
56668;BME280;42542;48.360;10.958;2022-08-19T14:03:40;95750.16;;;18.48;100.00
56668;BME280;42542;48.360;10.958;2022-08-19T14:06:41;95750.56;;;18.51;100.00
56668;BME280;42542;48.360;10.958;2022-08-19T14:09:43;95757.03;;;18.50;100.00
56668;BME280;42542;48.360;10.958;2022-08-19T14:12:47;95761.41;;;18.51;100.00
56668;BME280;42542;48.360;10.958;2022-08-19T14:15:50;95772.03;;;18.46;100.00
56668;BME280;42542;48.360;10.958;2022-08-19T14:18:54;95790.97;;;18.46;100.00
56668;BME280;42542;48.360;10.958;2022-08-19T14:21:56;95782.25;;;18.44;100.00
56668;BME280;42542;48.360;10.958;2022-08-19T14:24:59;95784.53;;;18.47;100.00
56668;BME280;42542;48.360;10.958;2022-08-19T14:28:00;95787.91;;;18.43;100.00
56668;BME280;42542;48.360;10.958;2022-08-19T14:31:02;95792.91;;;18.39;100.00
56668;BME280;42542;48.360;10.958;2022-08-19T14:34:04;95782.56;;;18.36;100.00
56668;BME280;42542;48.360;10.958;2022-08-19T14:37:06;95783.13;;;18.38;100.00
56668;BME280;42542;48.360;10.958;2022-08-19T14:40:18;95787.97;;;18.36;100.00
56668;BME280;42542;48.360;10.958;2022-08-19T14:43:23;95781.09;;;18.33;100.00
56668;BME280;42542;48.360;10.958;2022-08-19T14:46:26;95782.31;;;18.38;100.00
56668;BME280;42542;48.360;10.958;2022-08-19T14:49:30;95787.66;;;18.44;100.00
56668;BME280;42542;48.360;10.958;2022-08-19T14:52:42;95784.09;;;18.50;100.00
56668;BME280;42542;48.360;10.958;2022-08-19T14:55:45;95804.22;;;18.61;100.00
56668;BME280;42542;48.360;10.958;2022-08-19T14:58:47;95802.13;;;18.63;100.00
56668;BME280;42542;48.360;10.958;2022-08-19T15:01:53;95802.34;;;18.61;100.00
56668;BME280;42542;48.360;10.958;2022-08-19T15:04:54;95796.13;;;18.54;100.00
56668;BME280;42542;48.360;10.958;2022-08-19T15:08:03;95819.03;;;18.58;100.00
56668;BME280;42542;48.360;10.958;2022-08-19T15:11:13;95819.03;;;18.58;100.00
56668;BME280;42542;48.360;10.958;2022-08-19T15:14:16;95811.97;;;18.57;100.00
56668;BME280;42542;48.360;10.958;2022-08-19T15:17:18;95810.31;;;18.56;100.00
56668;BME280;42542;48.360;10.958;2022-08-19T15:20:20;95813.84;;;18.57;100.00
56668;BME280;42542;48.360;10.958;2022-08-19T15:23:25;95819.44;;;18.55;100.00
56668;BME280;42542;48.360;10.958;2022-08-19T15:26:27;95812.81;;;18.51;100.00
56668;BME280;42542;48.360;10.958;2022-08-19T15:29:32;95813.41;;;18.53;100.00
56668;BME280;42542;48.360;10.958;2022-08-19T15:32:35;95809.28;;;18.51;100.00
56668;BME280;42542;48.360;10.958;2022-08-19T15:35:37;95802.69;;;18.40;100.00
56668;BME280;42542;48.360;10.958;2022-08-19T15:38:42;95812.41;;;18.48;100.00
56668;BME280;42542;48.360;10.958;2022-08-19T15:41:46;95801.59;;;18.48;100.00
56668;BME280;42542;48.360;10.958;2022-08-19T15:44:48;95811.38;;;18.49;100.00
56668;BME280;42542;48.360;10.958;2022-08-19T15:47:50;95800.81;;;18.41;100.00
56668;BME280;42542;48.360;10.958;2022-08-19T15:50:52;95810.97;;;18.45;100.00
56668;BME280;42542;48.360;10.958;2022-08-19T15:53:55;95811.66;;;18.41;100.00
56668;BME280;42542;48.360;10.958;2022-08-19T15:56:56;95797.13;;;18.35;100.00
56668;BME280;42542;48.360;10.958;2022-08-19T16:00:17;95809.59;;;18.36;100.00
56668;BME280;42542;48.360;10.958;2022-08-19T16:03:37;95811.69;;;18.34;100.00